• Join FlightAware (Why Join?)
  • Login
  • US Flag 
10:34AM EDT


 

Airport Tracker/Info


-or-


 

Live Flight TrackerFlight Track Log ✈ N642WA ✈ 03-Nov-2013 ✈ KLFT - KDTS

Flight Track Log - Related Links

Times and Time Zones

All times are in EST time to prevent confusion due to time zone crossing. See the N642WA flight status page for this flight to view local times or setup timezone preferences in your user account.

Time Position Orientation Groundspeed Altitude Reporting Facility
EST Latitude Longitude Course Direction KTS MPH feet Rate Location/Type
05:27PM 30.2203 -91.7119 87° East  Level Estimated
05:27PM 30.2369 -91.7792 88° East 187 215 4,600  Level Houston Center
05:28PM 30.2224 -91.6567 87° East  Level FlightAware Approximate
05:28PM 30.2353 -91.7361 93° East 140 161 5,500  Level Houston Center
05:29PM 30.2244 -91.6015 88° East  Level FlightAware Approximate
05:29PM 30.2367 -91.6861 88° East 143 165 6,400  Level Houston Center
05:30PM 30.2264 -91.5462 88° East  Level FlightAware Approximate
05:30PM 30.2414 -91.6356 84° East 157 181 7,200  Level Houston Center
05:31PM 30.2285 -91.4910 88° East  Level FlightAware Approximate
05:31PM 30.2428 -91.5853 88° East 157 181 8,000  Level Houston Center
05:32PM 30.2304 -91.4358 88° East  Level FlightAware Approximate
05:32PM 30.2447 -91.5361 87° East 154 177 8,800  Level Houston Center
05:33PM 30.2456 -91.4689 89° East 176 203 9,000 60 Climbing Houston Center
05:34PM 30.2494 -91.4092 86° East 184 212 9,000  Level Houston Center
05:35PM 30.2525 -91.3517 86° East 181 208 9,000  Level Houston Center
05:36PM 30.2542 -91.2939 88° East 179 206 9,000  Level Houston Center
05:36PM 30.2539 -91.2822 92° East 181 208 9,000  Level Houston Center
05:36PM 30.2556 -91.2533 86° East 180 207 9,000  Level Houston Center
05:37PM 30.2561 -91.2358 88° East 181 208 9,000  Level Houston Center
05:38PM 30.2581 -91.1883 87° East 184 212 9,000  Level Houston Center
05:38PM 30.2578 -91.1769 92° East 183 211 9,000  Level Houston Center
05:39PM 30.2608 -91.1306 86° East 186 214 9,000  Level Houston Center
05:39PM 30.2614 -91.1056 89° East 187 215 9,000  Level Houston Center
05:40PM 30.2636 -91.0703 86° East 185 213 9,000  Level Houston Center
05:40PM 30.2647 -91.0458 87° East 187 215 9,000  Level Houston Center
05:41PM 30.2664 -91.0075 87° East 185 213 9,000  Level Houston Center
05:41PM 30.2667 -90.9883 89° East 182 209 9,000  Level Houston Center
05:42PM 30.2669 -90.9475 90° East 185 213 9,000  Level Houston Center
05:42PM 30.2686 -90.9281 84° East 185 213 9,000  Level Houston Center
05:43PM 30.2694 -90.8872 89° East 185 213 9,000  Level Houston Center
05:43PM 30.2717 -90.8681 82° East 187 215 9,000  Level Houston Center
05:44PM 30.2722 -90.8294 89° East 185 213 9,000  Level Houston Center
05:44PM 30.2725 -90.8103 89° East 183 211 9,000  Level Houston Center
05:45PM 30.2750 -90.7692 86° East 184 212 9,000  Level Houston Center
05:45PM 30.2767 -90.7383 86° East 186 214 9,000  Level Houston Center
05:46PM 30.2753 -90.7114 93° East 185 213 9,000  Level Houston Center
05:46PM 30.2775 -90.6806 85° East 183 211 9,000  Level Houston Center
05:47PM 30.2778 -90.6461 89° East 186 214 9,000  Level Houston Center
05:47PM 30.2803 -90.6203 84° East 186 214 9,000  Level Houston Center
05:48PM 30.2803 -90.5811 90° East 185 213 9,000  Level Houston Center
05:48PM 30.2817 -90.5611 85° East 186 214 9,000  Level Houston Center
05:49PM 30.2828 -90.5233 88° East 186 214 9,000  Level Houston Center
05:49PM 30.2836 -90.5019 87° East 185 213 9,000  Level Houston Center
05:50PM 30.2850 -90.4581 88° East 184 212 9,000  Level Houston Center
05:50PM 30.2861 -90.4311 87° East 185 213 9,000  Level Houston Center
05:51PM 30.2875 -90.4003 87° East 185 213 9,000  Level Houston Center
05:51PM 30.2886 -90.3722 87° East 183 211 9,000  Level Houston Center
05:52PM 30.2878 -90.3400 92° East 184 212 9,000  Level Houston Center
05:52PM 30.2906 -90.3133 83° East 184 212 9,000  Level Houston Center
05:53PM 30.2906 -90.2869 90° East 185 213 9,000  Level Houston Center
05:53PM 30.2922 -90.2539 87° East 185 213 9,000  Level Houston Center
05:54PM 30.2928 -90.2267 89° East 185 213 9,000  Level Houston Center
05:54PM 30.2936 -90.1953 88° East 184 212 9,000  Level Houston Center
05:55PM 30.2931 -90.1664 91° East 185 213 9,000  Level Houston Center
05:55PM 30.2953 -90.1356 85° East 185 213 9,000  Level Houston Center
05:56PM 30.2953 -90.1061 90° East 185 213 9,000  Level Houston Center
05:57PM 30.2981 -90.0639 86° East 185 213 9,000  Level Houston Center
05:57PM 30.2978 -90.0483 91° East 185 213 9,000  Level Houston Center
05:58PM 30.2997 -90.0047 87° East 186 214 9,000  Level Houston Center
05:58PM 30.3000 -89.9881 89° East 184 212 9,000  Level Houston Center
05:59PM 30.3008 -89.9461 89° East 185 213 9,000  Level Houston Center
05:59PM 30.3022 -89.9253 86° East 186 214 9,000  Level Houston Center
06:00PM 30.3028 -89.8867 89° East 185 213 9,000  Level Houston Center
06:01PM 30.3042 -89.8275 88° East 186 214 9,000  Level Houston Center
06:02PM 30.3056 -89.7572 89° East 187 215 9,000  Level Houston Center
06:03PM 30.3086 -89.6989 87° East 187 215 9,000  Level Houston Center
06:04PM 30.3103 -89.6400 88° East 185 213 9,000 -60 Level Houston Center
06:05PM 30.3131 -89.5803 87° East 186 214 8,900 -60 Descending Houston Center
06:06PM 30.3153 -89.5089 88° East 186 214 8,900  Level Houston Center
06:07PM 30.3164 -89.4486 89° East 187 215 8,900  Level Houston Center
06:08PM 30.3181 -89.3897 88° East 185 213 8,900  Level Houston Center
06:09PM 30.3206 -89.3289 87° East 187 215 8,900  Level Houston Center
06:10PM 30.3214 -89.2686 89° East 189 217 8,900  Level Houston Center
06:11PM 30.3231 -89.2108 88° East 183 211 8,900  Level Houston Center
06:12PM 30.3247 -89.1381 88° East 187 215 8,900  Level Houston Center
06:13PM 30.3269 -89.0778 88° East 188 216 8,900  Level Houston Center
06:14PM 30.3281 -89.0172 89° East 188 216 8,900  Level Houston Center
06:15PM 30.3289 -88.9572 89° East 188 216 8,900  Level Houston Center
06:16PM 30.3306 -88.8928 88° East 188 216 8,900  Level Houston Center
06:17PM 30.3322 -88.8353 88° East 183 211 8,900  Level Houston Center
06:18PM 30.3336 -88.7747 88° East 186 214 8,900  Level Houston Center
06:19PM 30.3353 -88.7044 88° East 184 212 8,900  Level Houston Center
06:20PM 30.3364 -88.6447 89° East 185 213 8,900  Level Houston Center
06:21PM 30.3378 -88.5844 88° East 187 215 8,900  Level Houston Center
06:22PM 30.3386 -88.5247 89° East 187 215 8,900  Level Houston Center
06:23PM 30.3408 -88.4669 87° East 183 211 8,900  Level Houston Center
06:24PM 30.3417 -88.3950 89° East 186 214 8,900  Level Houston Center
06:25PM 30.3428 -88.3369 89° East 183 211 8,900  Level Houston Center
06:27PM 30.3442 -88.2772 88° East 185 213 8,900  Level Houston Center
06:28PM 30.3456 -88.2167 88° East 187 215 8,900  Level Houston Center
06:29PM 30.3461 -88.1567 89° East 188 216 8,900  Level Houston Center
06:30PM 30.3469 -88.0964 89° East 188 216 8,900  Level Houston Center
06:31PM 30.3483 -88.0242 89° East 188 216 8,900  Level Houston Center
06:32PM 30.3497 -87.9636 88° East 188 216 8,900  Level Houston Center
06:33PM 30.3511 -87.9044 88° East 184 212 8,900  Level Houston Center
06:34PM 30.3514 -87.8442 90° East 188 216 8,900  Level Houston Center
06:35PM 30.3528 -87.7839 88° East 188 216 8,900  Level Houston Center
06:36PM 30.3536 -87.7133 89° East 184 212 8,900  Level Houston Center
06:37PM 30.3542 -87.6525 89° East 189 217 8,900  Level Houston Center
06:38PM 30.3522 -87.6128 93° East 187 215 8,900  Level Jacksonville Center
06:39PM 30.3525 -87.5500 90° East 188 216 8,900  Level Jacksonville Center
06:40PM 30.3528 -87.4875 90° East 187 215 8,900  Level Jacksonville Center
06:41PM 30.3528 -87.4272 90° East 186 214 8,900 -180 Level Jacksonville Center
06:42PM 30.3550 -87.3672 88° East 187 215 8,600 -540 Descending Jacksonville Center
06:43PM 30.3550 -87.3022 90° East 201 231 7,900 -660 Descending Jacksonville Center
06:44PM 30.3575 -87.2375 87° East 195 224 7,300 -600 Descending Jacksonville Center
06:46PM 30.3519 -87.1593 95° East  Level FlightAware Approximate
06:53PM 30.3578 -86.7673 82° East  Level FlightAware Approximate
06:54PM 30.3644 -86.7118 82° East  Level FlightAware Approximate
06:55PM 30.3709 -86.6562 82° East  Level FlightAware Approximate
06:56PM 30.3774 -86.6007 82° East  Level FlightAware Approximate
06:57PM 30.3843 -86.5452 77° East  Level FlightAware Approximate
06:58PM 30.3952 -86.4906 77° East  Level FlightAware Approximate
06:59PM 30.4000 -86.4667 77° East  Level FlightAware Approximate
07:00PM 30.4000 -86.4715 77° East  Level Estimated
07:01PM 30.4000 -86.4667 77° East  Level FlightAware Approximate
07:02PM 30.4000 -86.4715 77° East  Level Estimated
07:03PM 30.4000 -86.4667 77° East  Level FlightAware Approximate
07:04PM 30.4000 -86.4715 77° East  Level Estimated
07:05PM 30.4000 -86.4667 77° East  Level FlightAware Approximate
07:06PM 30.4000 -86.4715 77° East  Level Estimated
07:07PM 30.4000 -86.4667 77° East  Level FlightAware Approximate
07:08PM 30.4000 -86.4715 77° East  Level Estimated
07:09PM 30.4000 -86.4667 77° East  Level FlightAware Approximate
07:10PM 30.4000 -86.4715 77° East  Level Estimated
07:11PM 30.4000 -86.4667 77° East  Level FlightAware Approximate
07:12PM 30.4000 -86.4715 77° East  Level Estimated
07:13PM 30.4000 -86.4667 77° East  Level FlightAware Approximate
07:14PM 30.4000 -86.4715 77° East  Level Estimated
07:15PM 30.4000 -86.4667 77° East  Level FlightAware Approximate
07:16PM 30.4000 -86.4715 77° East  Level Estimated